Time;durP1;ratioP1;P1;durP2;ratioP2;P2;SDS_P1;SDS_P2;PMS_P1;PMS_P2;Temp;Humidity;BMP_temperature;BMP_pressure;BME280_temperature;BME280_humidity;BME280_pressure;Samples;Min_cycle;Max_cycle;Signal;HPM_P1;HPM_P2
2023/01/08 00:00:41;;;;;;;;;;;10.00;99.90;;;;;;5135936;27;19980;-45
2023/01/08 00:03:07;;;;;;;;;;;10.00;99.90;;;;;;5135855;27;19908;-44
2023/01/08 00:05:32;;;;;;;;;;;10.00;99.90;;;;;;5135078;27;19989;-43
2023/01/08 00:07:58;;;;;;;;;;;10.00;99.90;;;;;;5135955;27;20006;-45
2023/01/08 00:10:23;;;;;;;;;;;10.10;99.90;;;;;;5135248;27;19949;-47
2023/01/08 00:12:49;;;;;;;;;;;10.10;99.90;;;;;;5134919;27;19919;-46
2023/01/08 00:15:14;;;;;;;;;;;10.10;99.90;;;;;;5131703;27;19915;-45
2023/01/08 00:17:40;;;;;;;;;;;10.10;99.90;;;;;;5115292;28;20290;-46
2023/01/08 00:20:05;;;;;;;;;;;10.10;99.90;;;;;;5133005;27;19915;-44
2023/01/08 00:22:31;;;;;;;;;;;10.20;99.90;;;;;;5121362;27;19912;-44
2023/01/08 00:24:56;;;;;;;;;;;10.10;99.90;;;;;;5115013;28;19912;-44
2023/01/08 00:27:22;;;;;;;;;;;10.10;99.90;;;;;;5113869;28;20369;-46
2023/01/08 00:29:47;;;;;;;;;;;10.10;99.90;;;;;;5114686;28;20017;-43
2023/01/08 00:32:13;;;;;;;;;;;10.10;99.90;;;;;;5114734;28;19919;-44
2023/01/08 00:34:38;;;;;;;;;;;10.10;99.90;;;;;;5132388;27;20373;-44
2023/01/08 00:37:04;;;;;;;;;;;10.10;99.90;;;;;;5135239;27;19911;-43
2023/01/08 00:39:29;;;;;;;;;;;10.10;99.90;;;;;;5135193;27;20267;-43
2023/01/08 00:41:54;;;;;;;;;;;10.20;99.90;;;;;;5116027;27;19911;-44
2023/01/08 00:44:20;;;;;;;;;;;10.10;99.90;;;;;;5134821;27;19911;-47
2023/01/08 00:46:45;;;;;;;;;;;10.10;99.90;;;;;;5135110;27;19907;-44
2023/01/08 00:49:11;;;;;;;;;;;10.20;99.90;;;;;;5115689;27;20089;-44
2023/01/08 00:51:36;;;;;;;;;;;10.10;99.90;;;;;;5134363;27;19973;-48
2023/01/08 00:54:02;;;;;;;;;;;10.10;99.90;;;;;;5134602;27;19927;-44
2023/01/08 00:56:27;;;;;;;;;;;10.10;99.90;;;;;;5133935;27;19960;-44
2023/01/08 00:58:54;;;;;;;;;;;10.10;99.90;;;;;;5134767;27;20407;-45
2023/01/08 01:01:19;;;;;;;;;;;10.10;99.90;;;;;;5134434;27;19907;-45
2023/01/08 01:03:45;;;;;;;;;;;10.10;99.90;;;;;;5125397;27;19990;-47
2023/01/08 01:06:12;;;;;;;;;;;10.10;99.90;;;;;;5114041;27;19977;-44
2023/01/08 01:08:37;;;;;;;;;;;10.20;99.90;;;;;;5132367;27;20024;-44
2023/01/08 01:11:06;;;;;;;;;;;10.10;99.90;;;;;;5118741;27;20370;-45
2023/01/08 01:13:32;;;;;;;;;;;10.10;99.90;;;;;;5154246;27;19918;-44
2023/01/08 01:15:59;;;;;;;;;;;10.10;99.90;;;;;;5154510;27;19907;-44
2023/01/08 01:18:24;;;;;;;;;;;10.20;99.90;;;;;;5136398;27;20282;-46
2023/01/08 01:20:50;;;;;;;;;;;10.20;99.90;;;;;;5134390;27;19912;-44
2023/01/08 01:23:15;;;;;;;;;;;10.10;99.90;;;;;;5133587;27;20438;-46
2023/01/08 01:25:41;;;;;;;;;;;10.20;99.90;;;;;;5134257;27;19908;-43
2023/01/08 01:28:06;;;;;;;;;;;10.20;99.90;;;;;;5133848;27;19913;-45
2023/01/08 01:30:32;;;;;;;;;;;10.20;99.90;;;;;;5133464;27;20324;-43
2023/01/08 01:32:57;;;;;;;;;;;10.10;99.90;;;;;;5133099;27;19907;-45
2023/01/08 01:35:23;;;;;;;;;;;10.20;99.90;;;;;;5113447;28;19914;-45
2023/01/08 01:37:48;;;;;;;;;;;10.10;99.90;;;;;;5112672;28;19908;-43
2023/01/08 01:40:14;;;;;;;;;;;10.10;99.90;;;;;;5113516;28;19960;-44
2023/01/08 01:42:39;;;;;;;;;;;10.10;99.90;;;;;;5126131;27;19918;-44
2023/01/08 01:45:13;;;;;;;;;;;10.10;99.90;;;;;;5132952;27;19911;-44
2023/01/08 01:47:39;;;;;;;;;;;10.00;99.90;;;;;;5134010;27;19907;-46
2023/01/08 01:50:04;;;;;;;;;;;9.90;99.90;;;;;;5133615;27;20393;-43
2023/01/08 01:52:31;;;;;;;;;;;9.80;99.90;;;;;;5133098;27;19927;-44
2023/01/08 01:54:59;;;;;;;;;;;9.70;99.90;;;;;;5112913;27;19923;-44
2023/01/08 01:57:25;;;;;;;;;;;9.70;99.90;;;;;;5113212;28;20003;-44
2023/01/08 01:59:52;;;;;;;;;;;9.60;99.90;;;;;;5112220;28;20289;-44
2023/01/08 02:02:17;;;;;;;;;;;9.60;99.90;;;;;;5104225;28;20282;-44
2023/01/08 02:04:43;;;;;;;;;;;9.50;99.90;;;;;;5092856;28;19908;-45
2023/01/08 02:07:08;;;;;;;;;;;9.50;99.90;;;;;;5091936;28;19931;-43
2023/01/08 02:09:41;;;;;;;;;;;9.40;99.90;;;;;;5092749;28;19962;-45
2023/01/08 02:12:15;;;;;;;;;;;9.30;99.90;;;;;;5099466;28;19930;-45
2023/01/08 02:14:44;;;;;;;;;;;9.30;99.90;;;;;;5113244;28;19984;-48
2023/01/08 02:17:10;;;;;;;;;;;9.20;99.90;;;;;;5113015;28;20373;-43
2023/01/08 02:19:47;;;;;;;;;;;9.10;99.90;;;;;;5112389;28;19908;-45
2023/01/08 02:22:13;;;;;;;;;;;9.10;99.90;;;;;;5117215;28;19914;-46
2023/01/08 02:24:50;;;;;;;;;;;9.10;99.90;;;;;;5117482;28;19908;-46
2023/01/08 02:27:16;;;;;;;;;;;9.00;99.90;;;;;;5116364;28;20006;-45
2023/01/08 02:29:43;;;;;;;;;;;9.00;99.90;;;;;;5117010;28;19919;-45
2023/01/08 02:32:08;;;;;;;;;;;9.00;99.90;;;;;;5116923;28;20353;-46
2023/01/08 02:34:34;;;;;;;;;;;8.90;99.90;;;;;;5117262;27;19962;-45
2023/01/08 02:37:00;;;;;;;;;;;9.00;99.90;;;;;;5116908;28;20018;-47
2023/01/08 02:39:28;;;;;;;;;;;9.00;99.90;;;;;;5116674;28;19998;-48
2023/01/08 02:41:57;;;;;;;;;;;9.00;99.90;;;;;;5116237;28;19911;-48
2023/01/08 02:44:30;;;;;;;;;;;9.00;99.90;;;;;;5116900;28;19908;-46
2023/01/08 02:46:57;;;;;;;;;;;9.00;99.90;;;;;;5116832;28;19998;-48
2023/01/08 02:49:23;;;;;;;;;;;8.90;99.90;;;;;;5116332;28;19912;-45
2023/01/08 02:51:50;;;;;;;;;;;8.90;99.90;;;;;;5116841;28;19916;-43
2023/01/08 02:54:18;;;;;;;;;;;8.90;99.90;;;;;;5115590;27;20278;-45
2023/01/08 02:56:46;;;;;;;;;;;8.90;99.90;;;;;;5116511;28;20348;-45
2023/01/08 02:59:13;;;;;;;;;;;8.90;99.90;;;;;;5116400;28;19908;-49
2023/01/08 03:01:39;;;;;;;;;;;8.80;99.90;;;;;;5103223;28;19912;-44
2023/01/08 03:04:17;;;;;;;;;;;8.90;99.90;;;;;;5112394;27;20407;-45
2023/01/08 03:06:42;;;;;;;;;;;8.80;99.90;;;;;;5136904;27;19955;-46
2023/01/08 03:09:08;;;;;;;;;;;8.80;99.90;;;;;;5136174;27;19972;-46
2023/01/08 03:11:37;;;;;;;;;;;8.80;99.90;;;;;;5136866;27;19922;-47
2023/01/08 03:14:02;;;;;;;;;;;8.80;99.90;;;;;;5136661;27;19912;-44
2023/01/08 03:16:38;;;;;;;;;;;8.80;99.90;;;;;;5136014;27;19997;-44
2023/01/08 03:19:20;;;;;;;;;;;8.80;99.90;;;;;;5125806;27;19908;-46
2023/01/08 03:21:46;;;;;;;;;;;8.70;99.90;;;;;;5115839;28;20266;-44
2023/01/08 03:24:13;;;;;;;;;;;8.70;99.90;;;;;;5115259;28;20353;-45
2023/01/08 03:26:41;;;;;;;;;;;8.70;99.90;;;;;;5116057;28;19914;-47
2023/01/08 03:29:10;;;;;;;;;;;8.70;99.90;;;;;;5116003;28;19908;-45
2023/01/08 03:31:37;;;;;;;;;;;8.60;99.90;;;;;;5114156;28;19961;-46
2023/01/08 03:34:02;;;;;;;;;;;8.60;99.90;;;;;;5125063;27;19912;-44
2023/01/08 03:36:29;;;;;;;;;;;8.60;99.90;;;;;;5135622;27;20267;-45
2023/01/08 03:38:57;;;;;;;;;;;8.60;99.90;;;;;;5136425;27;19914;-43
2023/01/08 03:41:23;;;;;;;;;;;8.60;99.90;;;;;;5136016;27;19911;-44
2023/01/08 03:43:49;;;;;;;;;;;8.50;99.90;;;;;;5135565;27;20430;-44
2023/01/08 03:46:17;;;;;;;;;;;8.60;99.90;;;;;;5136404;27;19960;-45
2023/01/08 03:48:43;;;;;;;;;;;8.50;99.90;;;;;;5126597;27;20387;-46
2023/01/08 03:51:09;;;;;;;;;;;8.50;99.90;;;;;;5114577;28;19999;-45
2023/01/08 03:53:35;;;;;;;;;;;8.60;99.90;;;;;;5115182;27;19965;-46
2023/01/08 03:56:00;;;;;;;;;;;8.60;99.90;;;;;;5115043;28;19912;-45
2023/01/08 03:58:26;;;;;;;;;;;8.60;99.90;;;;;;5114372;28;19907;-46
2023/01/08 04:00:51;;;;;;;;;;;8.70;99.90;;;;;;5115527;28;20380;-44
2023/01/08 04:03:17;;;;;;;;;;;8.80;99.90;;;;;;5115352;28;19912;-48
2023/01/08 04:05:42;;;;;;;;;;;8.80;99.90;;;;;;5114508;28;19912;-45
2023/01/08 04:08:08;;;;;;;;;;;9.00;99.90;;;;;;5115053;28;19922;-46
2023/01/08 04:10:33;;;;;;;;;;;9.00;99.90;;;;;;5115011;28;19915;-45
2023/01/08 04:12:59;;;;;;;;;;;9.10;99.90;;;;;;5114324;28;20003;-44
2023/01/08 04:15:24;;;;;;;;;;;9.10;99.90;;;;;;5114913;28;19908;-45
2023/01/08 04:17:50;;;;;;;;;;;9.20;99.90;;;;;;5115049;28;19907;-44
2023/01/08 04:20:15;;;;;;;;;;;9.20;99.90;;;;;;5114294;28;20355;-44
2023/01/08 04:22:41;;;;;;;;;;;9.20;99.90;;;;;;5115027;28;19907;-44
2023/01/08 04:25:07;;;;;;;;;;;9.20;99.90;;;;;;5114509;28;20397;-43
2023/01/08 04:27:32;;;;;;;;;;;9.20;99.90;;;;;;5114226;28;19908;-43
2023/01/08 04:29:57;;;;;;;;;;;9.20;99.90;;;;;;5114948;28;19961;-43
2023/01/08 04:32:23;;;;;;;;;;;9.20;99.90;;;;;;5114958;28;20515;-45
2023/01/08 04:34:48;;;;;;;;;;;9.20;99.90;;;;;;5131577;27;19964;-46
2023/01/08 04:37:14;;;;;;;;;;;9.20;99.90;;;;;;5135057;27;19915;-44
2023/01/08 04:39:39;;;;;;;;;;;9.20;99.90;;;;;;5134590;27;20005;-45
2023/01/08 04:42:05;;;;;;;;;;;9.20;99.90;;;;;;5134866;27;19922;-44
2023/01/08 04:44:30;;;;;;;;;;;9.20;99.90;;;;;;5134411;27;19908;-44
2023/01/08 04:46:56;;;;;;;;;;;9.10;99.90;;;;;;5134319;27;19911;-44
2023/01/08 04:49:21;;;;;;;;;;;9.10;99.90;;;;;;5134932;27;19952;-45
2023/01/08 04:51:46;;;;;;;;;;;9.10;99.90;;;;;;5134505;27;19916;-44
2023/01/08 04:54:12;;;;;;;;;;;9.10;99.90;;;;;;5118600;27;19927;-46
2023/01/08 04:56:37;;;;;;;;;;;9.10;99.90;;;;;;5114406;28;20489;-44
2023/01/08 04:59:03;;;;;;;;;;;9.00;99.90;;;;;;5114287;28;19911;-46
2023/01/08 05:01:28;;;;;;;;;;;9.00;99.90;;;;;;5113164;28;19908;-48
2023/01/08 05:03:55;;;;;;;;;;;9.00;99.90;;;;;;5105277;28;19908;-45
2023/01/08 05:06:20;;;;;;;;;;;9.00;99.90;;;;;;5093704;28;19941;-45
2023/01/08 05:08:46;;;;;;;;;;;9.00;99.90;;;;;;5092777;28;20295;-44
2023/01/08 05:11:11;;;;;;;;;;;9.00;99.90;;;;;;5093316;28;19956;-45
2023/01/08 05:13:37;;;;;;;;;;;9.00;99.90;;;;;;5106300;28;19919;-46
2023/01/08 05:16:02;;;;;;;;;;;9.00;99.90;;;;;;5113240;28;20419;-45
2023/01/08 05:18:28;;;;;;;;;;;9.00;99.90;;;;;;5113812;28;19908;-44
2023/01/08 05:20:54;;;;;;;;;;;9.00;99.90;;;;;;5113624;28;19970;-47
2023/01/08 05:23:19;;;;;;;;;;;9.00;99.90;;;;;;5113012;28;19908;-45
2023/01/08 05:25:45;;;;;;;;;;;9.00;99.90;;;;;;5113794;28;19908;-45
2023/01/08 05:28:10;;;;;;;;;;;9.00;99.90;;;;;;5113455;28;20351;-46
2023/01/08 05:30:36;;;;;;;;;;;8.90;99.90;;;;;;5112858;28;19915;-44
2023/01/08 05:33:01;;;;;;;;;;;8.90;99.90;;;;;;5122677;27;19987;-44
2023/01/08 05:35:27;;;;;;;;;;;8.90;99.90;;;;;;5134060;27;19915;-44
2023/01/08 05:37:52;;;;;;;;;;;8.90;99.90;;;;;;5133089;27;19911;-44
2023/01/08 05:40:17;;;;;;;;;;;8.80;99.90;;;;;;5134070;27;19961;-46
2023/01/08 05:42:43;;;;;;;;;;;8.80;99.90;;;;;;5134071;27;19907;-44
2023/01/08 05:45:08;;;;;;;;;;;8.80;99.90;;;;;;5133227;27;19907;-44
2023/01/08 05:47:34;;;;;;;;;;;8.80;99.90;;;;;;5133868;27;19907;-44
2023/01/08 05:50:00;;;;;;;;;;;8.70;99.90;;;;;;5133179;27;19921;-45
2023/01/08 05:52:26;;;;;;;;;;;8.60;99.90;;;;;;5133985;27;19978;-45
2023/01/08 05:54:51;;;;;;;;;;;8.60;99.90;;;;;;5152138;27;19919;-44
2023/01/08 05:57:17;;;;;;;;;;;8.60;99.90;;;;;;5153796;27;19911;-46
2023/01/08 05:59:42;;;;;;;;;;;8.60;99.90;;;;;;5154596;27;19907;-45
2023/01/08 06:02:08;;;;;;;;;;;8.60;99.90;;;;;;5153513;27;19973;-47
2023/01/08 06:04:33;;;;;;;;;;;8.60;99.90;;;;;;5132861;27;20258;-44
2023/01/08 06:06:58;;;;;;;;;;;8.60;99.90;;;;;;5133615;27;19907;-45
2023/01/08 06:09:24;;;;;;;;;;;8.60;99.90;;;;;;5133615;27;19918;-46
2023/01/08 06:11:50;;;;;;;;;;;8.70;99.90;;;;;;5132826;27;19967;-45
2023/01/08 06:14:15;;;;;;;;;;;8.70;99.90;;;;;;5133536;28;19907;-46
2023/01/08 06:16:44;;;;;;;;;;;8.70;99.90;;;;;;5133692;28;19907;-48
2023/01/08 06:19:11;;;;;;;;;;;8.70;99.90;;;;;;5132734;28;19952;-44
2023/01/08 06:21:36;;;;;;;;;;;8.60;99.90;;;;;;5133408;28;19907;-44
2023/01/08 06:24:02;;;;;;;;;;;8.60;99.90;;;;;;5133405;28;19907;-46
2023/01/08 06:26:28;;;;;;;;;;;8.60;99.90;;;;;;5132708;28;19908;-44
2023/01/08 06:28:53;;;;;;;;;;;8.60;99.90;;;;;;5133565;28;19907;-44
2023/01/08 06:31:18;;;;;;;;;;;8.50;99.90;;;;;;5133060;28;19941;-43
2023/01/08 06:33:44;;;;;;;;;;;8.60;99.90;;;;;;5145754;27;20318;-45
2023/01/08 06:36:09;;;;;;;;;;;8.50;99.90;;;;;;5153662;27;19911;-45
2023/01/08 06:38:35;;;;;;;;;;;8.50;99.90;;;;;;5154023;27;19998;-44
2023/01/08 06:41:08;;;;;;;;;;;8.50;99.90;;;;;;5153166;27;20289;-45
2023/01/08 06:43:34;;;;;;;;;;;8.50;99.90;;;;;;5154036;27;19908;-45
2023/01/08 06:46:00;;;;;;;;;;;8.50;99.90;;;;;;5154068;27;19930;-48
2023/01/08 06:48:25;;;;;;;;;;;8.50;99.90;;;;;;5153176;27;19913;-45
2023/01/08 06:50:51;;;;;;;;;;;8.50;99.90;;;;;;5151745;27;19919;-44
2023/01/08 06:53:17;;;;;;;;;;;8.50;99.90;;;;;;5152832;27;19919;-44
2023/01/08 06:55:42;;;;;;;;;;;8.40;99.90;;;;;;5154102;27;19907;-43
2023/01/08 06:58:08;;;;;;;;;;;8.40;99.90;;;;;;5143097;27;19923;-44
2023/01/08 07:00:34;;;;;;;;;;;8.40;99.90;;;;;;5122043;28;20274;-43
2023/01/08 07:02:59;;;;;;;;;;;8.40;99.90;;;;;;5117554;27;19912;-45
2023/01/08 07:05:24;;;;;;;;;;;8.40;99.90;;;;;;5105265;28;19916;-44
2023/01/08 07:07:50;;;;;;;;;;;8.40;99.90;;;;;;5115362;28;19911;-44
2023/01/08 07:10:16;;;;;;;;;;;8.40;99.90;;;;;;5118575;27;19927;-45
2023/01/08 07:12:41;;;;;;;;;;;8.40;99.90;;;;;;5123650;27;19911;-44
2023/01/08 07:15:07;;;;;;;;;;;8.40;99.90;;;;;;5122086;27;19926;-44
2023/01/08 07:17:32;;;;;;;;;;;8.40;99.90;;;;;;5125412;27;20267;-47
2023/01/08 07:19:58;;;;;;;;;;;8.40;99.90;;;;;;5116229;28;19931;-45
2023/01/08 07:22:24;;;;;;;;;;;8.40;99.90;;;;;;5115050;28;19912;-45
2023/01/08 07:24:50;;;;;;;;;;;8.40;99.90;;;;;;5122276;27;20022;-45
2023/01/08 07:27:16;;;;;;;;;;;8.50;99.90;;;;;;5116085;28;19908;-44
2023/01/08 07:29:41;;;;;;;;;;;8.50;99.90;;;;;;5122187;27;19915;-44
2023/01/08 07:32:07;;;;;;;;;;;8.40;99.90;;;;;;5136494;27;19966;-45
2023/01/08 07:34:33;;;;;;;;;;;8.40;99.90;;;;;;5137260;27;20362;-45
2023/01/08 07:36:59;;;;;;;;;;;8.40;99.90;;;;;;5117399;27;19927;-43
2023/01/08 07:39:24;;;;;;;;;;;8.40;99.90;;;;;;5113962;27;19915;-44
2023/01/08 07:41:50;;;;;;;;;;;8.40;99.90;;;;;;5139908;27;20330;-45
2023/01/08 07:44:15;;;;;;;;;;;8.40;99.90;;;;;;5127948;27;19908;-44
2023/01/08 07:46:41;;;;;;;;;;;8.40;99.90;;;;;;5125775;27;19937;-44
2023/01/08 07:49:06;;;;;;;;;;;8.40;99.90;;;;;;5123581;27;19981;-45
2023/01/08 07:51:32;;;;;;;;;;;8.40;99.90;;;;;;5115012;27;20019;-43
2023/01/08 07:53:57;;;;;;;;;;;8.30;99.90;;;;;;5123216;27;20297;-44
2023/01/08 07:56:24;;;;;;;;;;;8.30;99.90;;;;;;5142100;27;19947;-46
2023/01/08 07:58:49;;;;;;;;;;;8.30;99.90;;;;;;5137748;27;19919;-44
2023/01/08 08:01:15;;;;;;;;;;;8.30;99.90;;;;;;5135758;27;19908;-45
2023/01/08 08:03:41;;;;;;;;;;;8.30;99.90;;;;;;5135017;27;19968;-44
2023/01/08 08:06:07;;;;;;;;;;;8.20;99.90;;;;;;5135644;27;19908;-44
2023/01/08 08:08:32;;;;;;;;;;;8.20;99.90;;;;;;5133670;27;19963;-43
2023/01/08 08:10:58;;;;;;;;;;;8.10;99.90;;;;;;5121707;27;19977;-45
2023/01/08 08:13:23;;;;;;;;;;;8.10;99.90;;;;;;5126235;27;19961;-45
2023/01/08 08:15:48;;;;;;;;;;;8.00;99.90;;;;;;5141660;27;20380;-45
2023/01/08 08:18:14;;;;;;;;;;;8.00;99.90;;;;;;5145153;27;19919;-44
2023/01/08 08:20:39;;;;;;;;;;;7.90;99.90;;;;;;5139132;27;20005;-46
2023/01/08 08:23:09;;;;;;;;;;;7.90;99.90;;;;;;5135527;27;20293;-47
2023/01/08 08:25:35;;;;;;;;;;;7.90;99.90;;;;;;5134308;27;19907;-44
2023/01/08 08:28:01;;;;;;;;;;;7.80;99.90;;;;;;5135137;27;19914;-44
2023/01/08 08:30:26;;;;;;;;;;;7.80;99.90;;;;;;5136485;27;19926;-44
2023/01/08 08:32:52;;;;;;;;;;;7.80;99.90;;;;;;5154981;27;19962;-46
2023/01/08 08:35:18;;;;;;;;;;;7.70;99.90;;;;;;5155767;27;20384;-44
2023/01/08 08:37:43;;;;;;;;;;;7.70;99.90;;;;;;5155961;27;20289;-44
2023/01/08 08:40:09;;;;;;;;;;;7.70;99.90;;;;;;5154741;27;19908;-46
2023/01/08 08:42:34;;;;;;;;;;;7.80;99.90;;;;;;5154991;27;19979;-44
2023/01/08 08:45:00;;;;;;;;;;;7.80;99.90;;;;;;5145920;27;20004;-45
2023/01/08 08:47:25;;;;;;;;;;;7.80;99.90;;;;;;5134015;27;20266;-45
2023/01/08 08:49:51;;;;;;;;;;;7.80;99.90;;;;;;5134831;27;19961;-45
2023/01/08 08:52:16;;;;;;;;;;;7.80;99.90;;;;;;5134694;27;19961;-46
2023/01/08 08:54:42;;;;;;;;;;;7.90;99.90;;;;;;5115733;27;19926;-43
2023/01/08 08:57:08;;;;;;;;;;;7.90;99.90;;;;;;5114206;28;20278;-44
2023/01/08 08:59:33;;;;;;;;;;;7.90;99.90;;;;;;5114128;28;19961;-43
2023/01/08 09:01:59;;;;;;;;;;;7.90;99.90;;;;;;5113411;28;19912;-47
2023/01/08 09:04:24;;;;;;;;;;;7.90;99.90;;;;;;5114106;28;19912;-43
2023/01/08 09:06:51;;;;;;;;;;;8.00;99.90;;;;;;5108158;28;19912;-45
2023/01/08 09:09:16;;;;;;;;;;;8.00;99.90;;;;;;5093830;28;19912;-45
2023/01/08 09:11:42;;;;;;;;;;;8.00;99.90;;;;;;5107005;28;19926;-44
2023/01/08 09:14:08;;;;;;;;;;;8.00;99.90;;;;;;5113185;28;19922;-47
2023/01/08 09:16:35;;;;;;;;;;;8.00;99.90;;;;;;5113907;28;20268;-45
2023/01/08 09:19:01;;;;;;;;;;;8.00;99.90;;;;;;5113849;28;20474;-47
2023/01/08 09:21:26;;;;;;;;;;;8.10;99.90;;;;;;5113122;28;19908;-48
2023/01/08 09:23:52;;;;;;;;;;;8.10;99.90;;;;;;5113895;28;19908;-44
2023/01/08 09:26:17;;;;;;;;;;;8.20;99.90;;;;;;5104384;28;19908;-43
2023/01/08 09:28:43;;;;;;;;;;;8.20;99.90;;;;;;5092577;28;20405;-45
2023/01/08 09:31:08;;;;;;;;;;;8.20;99.90;;;;;;5102174;28;19923;-44
2023/01/08 09:33:34;;;;;;;;;;;8.20;99.90;;;;;;5095589;28;19920;-45
2023/01/08 09:35:59;;;;;;;;;;;8.20;99.90;;;;;;5092898;28;19919;-46
2023/01/08 09:38:25;;;;;;;;;;;8.30;99.90;;;;;;5105861;28;19908;-44
2023/01/08 09:40:54;;;;;;;;;;;8.30;99.90;;;;;;5113612;28;19943;-43
2023/01/08 09:43:21;;;;;;;;;;;8.30;99.90;;;;;;5100034;28;19912;-44
2023/01/08 09:45:58;;;;;;;;;;;8.40;99.90;;;;;;5113452;28;19908;-44
2023/01/08 09:48:26;;;;;;;;;;;8.40;99.90;;;;;;5107335;28;19920;-44
2023/01/08 09:50:52;;;;;;;;;;;8.50;99.90;;;;;;5111308;28;19919;-43
2023/01/08 09:53:17;;;;;;;;;;;8.50;99.90;;;;;;5113052;27;20027;-44
2023/01/08 09:55:45;;;;;;;;;;;8.50;99.90;;;;;;5123522;27;19920;-46
2023/01/08 09:58:33;;;;;;;;;;;8.50;99.90;;;;;;5121508;27;19919;-43
2023/01/08 10:01:00;;;;;;;;;;;8.50;99.90;;;;;;5111806;27;19935;-45
2023/01/08 10:03:28;;;;;;;;;;;8.60;99.90;;;;;;5116992;27;19911;-46
2023/01/08 10:05:54;;;;;;;;;;;8.60;99.90;;;;;;5123746;27;19927;-44
2023/01/08 10:08:19;;;;;;;;;;;8.70;99.90;;;;;;5126872;27;19912;-44
2023/01/08 10:10:45;;;;;;;;;;;8.70;99.90;;;;;;5124558;27;19964;-44
2023/01/08 10:13:11;;;;;;;;;;;8.70;99.90;;;;;;5132420;28;20319;-46
2023/01/08 10:15:38;;;;;;;;;;;8.80;99.90;;;;;;5128745;27;19911;-46
2023/01/08 10:18:03;;;;;;;;;;;8.80;99.90;;;;;;5129370;28;19922;-44
2023/01/08 10:20:29;;;;;;;;;;;8.80;99.90;;;;;;5133321;28;19908;-46
2023/01/08 10:22:55;;;;;;;;;;;8.90;99.90;;;;;;5133203;28;19908;-45
2023/01/08 10:25:25;;;;;;;;;;;8.90;99.90;;;;;;5131897;28;19918;-43
2023/01/08 10:27:52;;;;;;;;;;;9.00;99.90;;;;;;5131790;28;19998;-44
2023/01/08 10:30:22;;;;;;;;;;;9.00;99.90;;;;;;5116876;28;19911;-44
2023/01/08 10:32:50;;;;;;;;;;;9.00;99.90;;;;;;5132031;28;19914;-45
2023/01/08 10:35:17;;;;;;;;;;;9.10;99.90;;;;;;5132574;28;19916;-45
2023/01/08 10:37:45;;;;;;;;;;;9.10;99.90;;;;;;5116485;28;19912;-44
2023/01/08 10:40:28;;;;;;;;;;;9.20;99.90;;;;;;5114593;28;19915;-44
2023/01/08 10:42:54;;;;;;;;;;;9.20;99.90;;;;;;5136817;27;19918;-44
2023/01/08 10:45:27;;;;;;;;;;;9.20;99.90;;;;;;5136130;27;19980;-45
2023/01/08 10:47:57;;;;;;;;;;;9.30;99.90;;;;;;5139230;27;19953;-43
2023/01/08 10:50:24;;;;;;;;;;;9.30;99.90;;;;;;5142560;27;19944;-43
2023/01/08 10:52:56;;;;;;;;;;;9.40;99.90;;;;;;5147219;27;19947;-43
2023/01/08 10:55:22;;;;;;;;;;;9.40;99.90;;;;;;5135950;27;19926;-43
2023/01/08 10:57:53;;;;;;;;;;;9.50;99.90;;;;;;5137280;27;19927;-44
2023/01/08 11:00:23;;;;;;;;;;;9.50;99.90;;;;;;5132490;27;20409;-45
2023/01/08 11:02:49;;;;;;;;;;;9.40;99.90;;;;;;5119262;27;20390;-44
2023/01/08 11:05:15;;;;;;;;;;;9.50;99.90;;;;;;5137571;27;19916;-46
2023/01/08 11:07:40;;;;;;;;;;;9.50;99.90;;;;;;5146361;27;19960;-43
2023/01/08 11:10:18;;;;;;;;;;;9.60;99.90;;;;;;5137702;27;19907;-44
2023/01/08 11:12:44;;;;;;;;;;;9.60;99.90;;;;;;5137459;27;19918;-44
2023/01/08 11:15:18;;;;;;;;;;;9.60;99.90;;;;;;5136918;27;19908;-45
2023/01/08 11:17:44;;;;;;;;;;;9.60;99.90;;;;;;5137174;27;19915;-45
2023/01/08 11:20:35;;;;;;;;;;;9.70;99.90;;;;;;5125795;27;19911;-46
2023/01/08 11:23:18;;;;;;;;;;;9.80;99.90;;;;;;5118484;27;19933;-46
2023/01/08 11:25:47;;;;;;;;;;;9.80;99.90;;;;;;5135168;27;19922;-46
2023/01/08 11:28:15;;;;;;;;;;;9.80;99.90;;;;;;5131595;27;19918;-44
2023/01/08 11:30:43;;;;;;;;;;;9.90;99.90;;;;;;5120225;27;19985;-44
2023/01/08 11:33:12;;;;;;;;;;;9.90;99.90;;;;;;5136279;27;19914;-44
2023/01/08 11:35:44;;;;;;;;;;;10.00;99.90;;;;;;5135582;27;19945;-45
2023/01/08 11:38:11;;;;;;;;;;;10.00;99.90;;;;;;5136443;27;19908;-44
2023/01/08 11:40:55;;;;;;;;;;;10.00;99.90;;;;;;5132337;27;19923;-43
2023/01/08 11:43:20;;;;;;;;;;;10.00;99.90;;;;;;5115015;28;19945;-45
2023/01/08 11:46:05;;;;;;;;;;;10.00;99.90;;;;;;5116421;28;19939;-45
2023/01/08 11:48:35;;;;;;;;;;;10.00;99.90;;;;;;5116199;28;19908;-44
2023/01/08 11:51:23;;;;;;;;;;;10.10;99.90;;;;;;5125670;27;19919;-45
2023/01/08 11:53:58;;;;;;;;;;;10.10;99.90;;;;;;5127175;27;19972;-44
2023/01/08 11:56:36;;;;;;;;;;;10.00;99.90;;;;;;5115592;28;19953;-44
2023/01/08 11:59:20;;;;;;;;;;;10.10;99.90;;;;;;5116176;28;19915;-45
2023/01/08 12:01:46;;;;;;;;;;;10.10;99.90;;;;;;5099099;28;20488;-44
2023/01/08 12:04:25;;;;;;;;;;;10.00;99.90;;;;;;5095791;28;19947;-44
2023/01/08 12:06:57;;;;;;;;;;;10.00;99.90;;;;;;5115263;28;20324;-43
2023/01/08 12:09:37;;;;;;;;;;;10.00;99.90;;;;;;5115326;28;19931;-44
2023/01/08 12:12:12;;;;;;;;;;;10.20;99.90;;;;;;5114699;28;19922;-43
2023/01/08 12:14:51;;;;;;;;;;;10.30;99.90;;;;;;5115357;28;19920;-45
2023/01/08 12:17:23;;;;;;;;;;;10.30;99.90;;;;;;5114359;28;19908;-44
2023/01/08 12:20:02;;;;;;;;;;;10.30;99.90;;;;;;5124132;27;19912;-45
2023/01/08 12:22:36;;;;;;;;;;;10.20;99.90;;;;;;5116380;27;19977;-45
2023/01/08 12:25:10;;;;;;;;;;;10.10;99.90;;;;;;5114266;28;19915;-45
2023/01/08 12:27:42;;;;;;;;;;;10.10;99.90;;;;;;5115070;28;19908;-45
2023/01/08 12:30:13;;;;;;;;;;;10.10;99.90;;;;;;5114934;28;19907;-45
2023/01/08 12:32:41;;;;;;;;;;;10.10;99.90;;;;;;5114326;28;19908;-43
2023/01/08 12:35:12;;;;;;;;;;;10.10;99.90;;;;;;5118348;27;20053;-44
2023/01/08 12:37:44;;;;;;;;;;;10.30;99.90;;;;;;5114828;28;19908;-44
2023/01/08 12:40:19;;;;;;;;;;;10.40;99.90;;;;;;5113918;28;19908;-44
2023/01/08 12:42:44;;;;;;;;;;;10.50;99.90;;;;;;5114581;28;19911;-44
2023/01/08 12:45:16;;;;;;;;;;;10.50;99.90;;;;;;5113752;28;20322;-45
2023/01/08 12:47:43;;;;;;;;;;;10.50;99.90;;;;;;5114548;28;20244;-45
2023/01/08 12:50:33;;;;;;;;;;;10.60;99.90;;;;;;5114107;28;19915;-44
2023/01/08 12:53:12;;;;;;;;;;;10.60;99.90;;;;;;5114406;27;19980;-43
2023/01/08 12:55:37;;;;;;;;;;;10.40;99.90;;;;;;5134828;27;19907;-43
2023/01/08 12:58:09;;;;;;;;;;;10.60;99.90;;;;;;5134939;27;19916;-43
2023/01/08 13:00:51;;;;;;;;;;;10.60;99.90;;;;;;5134425;27;19908;-45
2023/01/08 13:03:20;;;;;;;;;;;10.60;99.90;;;;;;5144452;27;19911;-45
2023/01/08 13:05:46;;;;;;;;;;;10.70;99.90;;;;;;5137147;27;20285;-45
2023/01/08 13:08:23;;;;;;;;;;;10.70;99.90;;;;;;5138109;27;19953;-44
2023/01/08 13:10:49;;;;;;;;;;;10.70;99.90;;;;;;5137394;27;20044;-45
2023/01/08 13:13:34;;;;;;;;;;;10.80;99.90;;;;;;5133908;27;19915;-44
2023/01/08 13:16:07;;;;;;;;;;;10.80;99.90;;;;;;5134572;27;19962;-45
2023/01/08 13:18:33;;;;;;;;;;;10.80;99.90;;;;;;5134153;27;19911;-43
2023/01/08 13:21:00;;;;;;;;;;;10.90;99.90;;;;;;5124972;27;19938;-44
2023/01/08 13:23:26;;;;;;;;;;;10.90;99.90;;;;;;5113947;27;20385;-46
2023/01/08 13:25:53;;;;;;;;;;;10.90;99.90;;;;;;5113082;27;19912;-45
2023/01/08 13:28:34;;;;;;;;;;;10.90;99.90;;;;;;5113455;27;19918;-45
2023/01/08 13:31:07;;;;;;;;;;;10.90;99.90;;;;;;5138844;27;19920;-44
2023/01/08 13:33:32;;;;;;;;;;;10.90;99.90;;;;;;5128672;27;19911;-45
2023/01/08 13:36:16;;;;;;;;;;;10.90;99.90;;;;;;5134377;27;20384;-44
2023/01/08 13:38:42;;;;;;;;;;;11.00;99.90;;;;;;5134475;27;19915;-44
2023/01/08 13:41:28;;;;;;;;;;;11.00;99.90;;;;;;5133277;27;19918;-47
2023/01/08 13:43:56;;;;;;;;;;;10.90;99.90;;;;;;5134088;27;20468;-44
2023/01/08 13:46:22;;;;;;;;;;;10.90;99.90;;;;;;5134003;27;20327;-44
2023/01/08 13:48:58;;;;;;;;;;;10.70;99.90;;;;;;5140091;27;19911;-43
2023/01/08 13:51:30;;;;;;;;;;;10.60;99.90;;;;;;5154729;27;19922;-45
2023/01/08 13:54:07;;;;;;;;;;;10.80;99.90;;;;;;5154475;27;19919;-47
2023/01/08 13:56:32;;;;;;;;;;;11.00;99.90;;;;;;5154025;27;20373;-44
2023/01/08 13:58:58;;;;;;;;;;;11.30;99.90;;;;;;5154638;27;19913;-44
2023/01/08 14:01:23;;;;;;;;;;;11.50;99.90;;;;;;5154616;27;19911;-43
2023/01/08 14:03:49;;;;;;;;;;;11.50;99.90;;;;;;5153898;27;19994;-44
2023/01/08 14:06:21;;;;;;;;;;;11.50;99.90;;;;;;5154457;27;19908;-44
2023/01/08 14:08:57;;;;;;;;;;;11.60;99.90;;;;;;5154571;27;19908;-44
2023/01/08 14:11:26;;;;;;;;;;;11.70;99.90;;;;;;5153565;27;19922;-46
2023/01/08 14:13:51;;;;;;;;;;;11.80;99.90;;;;;;5154372;27;20270;-46
2023/01/08 14:16:18;;;;;;;;;;;11.80;99.90;;;;;;5147531;27;19911;-44
2023/01/08 14:18:44;;;;;;;;;;;11.80;99.90;;;;;;5133669;28;19923;-44
2023/01/08 14:21:10;;;;;;;;;;;11.60;99.90;;;;;;5133654;28;19926;-44
2023/01/08 14:23:38;;;;;;;;;;;11.20;99.90;;;;;;5133021;28;19911;-44
2023/01/08 14:26:07;;;;;;;;;;;10.90;99.90;;;;;;5133548;28;19937;-44
2023/01/08 14:28:33;;;;;;;;;;;10.60;99.90;;;;;;5133540;28;20350;-44